Charter Quote
Worldwide +1-877-727-2538 Call
Select Language Lang
SAFETY RELIABILITY EXPERIENCE

Private Jet Charter Services - Weifang Airport (ZSWF)

Paramount Business Jets offers private jet charter flights and luxury airliner charters to and from Weifang Airport.

AIRPORT INFORMATION
ICAOZSWF
LOCATIONWeifang, China
FACILITY TYPEAIRPORT

At Paramount Business Jets you can hire chartered private jets to and from Weifang Airport with as little as 4 hours of notice. All flights booked via Paramount Business Jets are operated by certified direct air carriers that meet and exceed the FAA part 135 and 121 protocol or a foreign equivalent safety authority. Furthermore, Paramount Business Jets subscribes to ARGUS for their third party safety checks of operators, aircraft, and crews prior each and every flight to and from Weifang Airport and worldwide.

  • Quote a trip using Weifang Airport or call us 24/7 - 365 days a year at +1-877-727-2538.
Questions? Call +1-877-727-2538

METAR Weather Data at Weifang Airport, ZSWF

STATIONZSWF
OBSERVEDThu Apr 16, 05:00 UTC
NOWSun Nov 17, 04:59 UTC
AGE40223:59 hr ago
WINDNW at 16 mph
VISIBILITYgreater than 7 miles
CLOUDSclear skies
TEMP66°F (19°C)
DEWPT12°F (-11°C)
HUMIDITY12%
BAROMETER1014 hPa (29.94 in Hg)
METARZSWF 160500Z 32007MPS CAVOK 19/M11 Q1014 NOSIG

Call us on +1-877-727-2538 (24 Hours) to Hire a Private Jet or Get a Quick Quote.

Find Airports Near any Location

Processing
...